createdAt,value
2019-02-19T00:00:01.590Z,84.30
2019-02-19T00:02:50.582Z,83.60
2019-02-19T00:05:39.945Z,84.30
2019-02-19T00:08:10.755Z,83.60
2019-02-19T00:10:41.715Z,84.40
2019-02-19T00:13:31.006Z,84.60
2019-02-19T00:16:01.893Z,84.70
2019-02-19T00:18:32.708Z,84.40
2019-02-19T00:21:05.455Z,85.50
2019-02-19T00:23:48.553Z,84.70
2019-02-19T00:26:21.372Z,84.00
2019-02-19T00:28:54.097Z,84.00
2019-02-19T00:31:26.888Z,84.00
2019-02-19T00:33:59.652Z,84.10
2019-02-19T00:36:43.073Z,83.20
2019-02-19T00:39:15.828Z,83.30
2019-02-19T00:41:48.594Z,84.50
2019-02-19T00:44:21.321Z,83.30
2019-02-19T00:46:54.057Z,84.00
2019-02-19T00:49:36.466Z,84.40
2019-02-19T00:52:09.274Z,84.70
2019-02-19T00:54:42.031Z,84.80
2019-02-19T00:57:14.753Z,84.40
2019-02-19T00:59:47.464Z,84.10
2019-02-19T01:02:30.433Z,84.30
2019-02-19T01:05:03.230Z,83.20
2019-02-19T01:07:35.937Z,82.30
2019-02-19T01:10:06.897Z,81.50
2019-02-19T01:12:37.719Z,81.90
2019-02-19T01:15:09.567Z,81.60
2019-02-19T01:17:40.344Z,81.90
2019-02-19T01:20:11.030Z,82.00
2019-02-19T01:22:50.271Z,82.20
2019-02-19T01:25:20.994Z,82.50
2019-02-19T01:27:51.750Z,82.30
2019-02-19T01:30:22.417Z,82.40
2019-02-19T01:32:53.124Z,82.90
2019-02-19T01:35:23.839Z,83.00
2019-02-19T01:37:54.557Z,83.30
2019-02-19T01:40:25.271Z,83.10
2019-02-19T01:42:56.028Z,83.00
2019-02-19T01:45:33.860Z,82.80
2019-02-19T01:47:59.171Z,82.20
2019-02-19T01:50:29.867Z,81.80
2019-02-19T01:53:00.843Z,81.10
2019-02-19T01:55:31.628Z,80.70
2019-02-19T01:58:02.366Z,80.90
2019-02-19T02:00:33.503Z,80.50
2019-02-19T02:03:04.750Z,80.80
2019-02-19T02:05:35.506Z,81.00
2019-02-19T02:08:06.562Z,81.30
2019-02-19T02:10:37.318Z,81.60
2019-02-19T02:13:07.995Z,81.60
2019-02-19T02:15:42.766Z,82.00
2019-02-19T02:18:11.078Z,81.90
2019-02-19T02:20:41.794Z,81.80
2019-02-19T02:23:12.510Z,81.00
2019-02-19T02:25:43.277Z,80.70
2019-02-19T02:28:13.993Z,80.70
2019-02-19T02:30:44.738Z,80.40
2019-02-19T02:33:15.446Z,80.00
2019-02-19T02:35:46.252Z,79.50
2019-02-19T02:38:16.981Z,79.10
2019-02-19T02:40:47.725Z,78.90
2019-02-19T02:43:18.453Z,78.50
2019-02-19T02:45:53.398Z,77.90
2019-02-19T02:48:21.535Z,77.70
2019-02-19T02:50:52.261Z,78.50
2019-02-19T02:53:23.008Z,77.90
2019-02-19T02:55:53.733Z,77.80
2019-02-19T02:58:24.439Z,77.70
2019-02-19T03:00:55.175Z,77.60
2019-02-19T03:03:25.887Z,77.10
2019-02-19T03:06:25.005Z,77.10
2019-02-19T03:08:55.695Z,77.20
2019-02-19T03:11:26.430Z,77.50
2019-02-19T03:13:57.174Z,77.40
2019-02-19T03:16:27.910Z,77.30
2019-02-19T03:18:58.636Z,77.30
2019-02-19T03:21:29.423Z,77.10
2019-02-19T03:24:00.121Z,77.00
2019-02-19T03:26:30.865Z,76.80
2019-02-19T03:29:01.593Z,76.70
2019-02-19T03:31:32.319Z,76.40
2019-02-19T03:34:03.035Z,76.30
2019-02-19T03:36:33.741Z,76.10
2019-02-19T03:39:05.278Z,75.80
2019-02-19T03:41:36.023Z,75.90
2019-02-19T03:44:06.739Z,76.10
2019-02-19T03:46:37.529Z,75.90
2019-02-19T03:49:08.225Z,75.90
2019-02-19T03:51:38.961Z,75.70
2019-02-19T03:54:09.685Z,75.00
2019-02-19T03:56:40.444Z,74.90
2019-02-19T03:59:11.127Z,75.20
2019-02-19T04:01:41.815Z,74.70
2019-02-19T04:04:12.571Z,74.40
2019-02-19T04:06:43.296Z,74.40
2019-02-19T04:09:14.063Z,74.70
2019-02-19T04:11:44.758Z,75.50
2019-02-19T04:14:15.543Z,75.80
2019-02-19T04:16:46.241Z,75.80
2019-02-19T04:19:16.917Z,75.70
2019-02-19T04:21:47.627Z,75.80
2019-02-19T04:24:18.389Z,76.50
2019-02-19T04:26:49.088Z,76.80
2019-02-19T04:29:19.823Z,77.10
2019-02-19T04:31:50.528Z,76.40
2019-02-19T04:34:21.265Z,76.80
2019-02-19T04:36:51.992Z,77.50
2019-02-19T04:39:22.758Z,77.30
2019-02-19T04:41:53.494Z,77.20
2019-02-19T04:44:24.230Z,76.60
2019-02-19T04:46:54.948Z,75.90
2019-02-19T04:49:25.733Z,76.50
2019-02-19T04:51:56.469Z,75.90
2019-02-19T04:54:27.246Z,75.80
2019-02-19T04:56:58.363Z,76.30
2019-02-19T04:59:29.159Z,76.20
2019-02-19T05:01:59.836Z,76.40
2019-02-19T05:04:30.616Z,76.30
2019-02-19T05:07:01.336Z,76.40
2019-02-19T05:09:32.091Z,76.70
2019-02-19T05:12:02.849Z,75.60
2019-02-19T05:14:33.586Z,76.30
2019-02-19T05:17:04.353Z,76.60
2019-02-19T05:19:35.080Z,76.30
2019-02-19T05:22:05.805Z,76.60
2019-02-19T05:24:36.522Z,77.30
2019-02-19T05:27:07.287Z,77.50
2019-02-19T05:29:37.944Z,78.00
2019-02-19T05:32:08.711Z,78.80
2019-02-19T05:34:39.442Z,79.10
2019-02-19T05:37:10.183Z,79.80
2019-02-19T05:39:40.941Z,80.80
2019-02-19T05:42:11.704Z,81.00
2019-02-19T05:44:42.382Z,81.50
2019-02-19T05:47:13.133Z,81.80
2019-02-19T05:49:43.893Z,82.40
2019-02-19T05:52:14.641Z,82.70
2019-02-19T05:54:45.392Z,83.10
2019-02-19T05:57:16.163Z,83.00
2019-02-19T05:59:46.891Z,83.10
2019-02-19T06:02:17.690Z,83.00
2019-02-19T06:04:48.419Z,82.90
2019-02-19T06:07:19.218Z,82.70
2019-02-19T06:09:49.935Z,83.20
2019-02-19T06:12:20.651Z,83.30
2019-02-19T06:14:51.464Z,83.00
2019-02-19T06:17:22.204Z,83.00
2019-02-19T06:19:52.920Z,82.50
2019-02-19T06:22:23.685Z,81.80
2019-02-19T06:24:54.402Z,82.70
2019-02-19T06:27:25.129Z,83.60
2019-02-19T06:29:55.885Z,82.60
2019-02-19T06:32:26.645Z,83.10
2019-02-19T06:34:57.387Z,83.80
2019-02-19T06:37:28.094Z,83.80
2019-02-19T06:39:58.824Z,85.00
2019-02-19T06:42:29.757Z,86.00
2019-02-19T06:45:00.503Z,86.30
2019-02-19T06:47:31.279Z,87.10
2019-02-19T06:50:02.025Z,87.90
2019-02-19T06:52:32.742Z,88.20
2019-02-19T06:55:03.511Z,89.60
2019-02-19T06:57:34.234Z,91.00
2019-02-19T07:00:05.211Z,92.60
2019-02-19T07:02:50.650Z,93.00
2019-02-19T07:05:23.137Z,93.90
2019-02-19T07:07:53.903Z,94.10
2019-02-19T07:10:24.669Z,95.20
2019-02-19T07:12:55.416Z,95.90
2019-02-19T07:15:26.183Z,96.20
2019-02-19T07:17:56.889Z,96.70
2019-02-19T07:20:27.624Z,97.70
2019-02-19T07:22:58.380Z,98.80
2019-02-19T07:25:29.138Z,98.90
2019-02-19T07:27:59.846Z,99.30
2019-02-19T07:30:30.599Z,99.80
2019-02-19T07:33:01.299Z,99.90
2019-02-19T07:35:32.613Z,99.90
2019-02-19T07:38:03.329Z,99.90
2019-02-19T07:40:34.128Z,99.90
2019-02-19T07:43:04.843Z,99.90
2019-02-19T07:45:35.596Z,99.90
2019-02-19T07:48:06.354Z,99.90
2019-02-19T07:50:37.061Z,99.90
2019-02-19T07:53:07.777Z,99.90
2019-02-19T07:55:38.574Z,99.90
2019-02-19T07:58:09.299Z,99.90
2019-02-19T08:00:40.068Z,99.90
2019-02-19T08:03:10.792Z,99.90
2019-02-19T08:05:41.559Z,99.90
2019-02-19T08:08:12.315Z,99.90
2019-02-19T08:10:43.041Z,99.90
2019-02-19T08:13:13.777Z,99.90
2019-02-19T08:15:44.492Z,99.90
2019-02-19T08:18:15.270Z,99.90
2019-02-19T08:20:45.946Z,99.90
2019-02-19T08:23:16.713Z,99.90
2019-02-19T08:25:47.416Z,99.90
2019-02-19T08:28:18.176Z,99.90
2019-02-19T08:30:48.953Z,99.90
2019-02-19T08:33:19.699Z,99.90
2019-02-19T08:35:50.396Z,99.90
2019-02-19T08:38:21.140Z,99.90
2019-02-19T08:40:51.876Z,99.90
2019-02-19T08:43:22.593Z,99.90
2019-02-19T08:45:53.367Z,99.90
2019-02-19T08:48:24.088Z,99.90
2019-02-19T08:50:54.772Z,99.90
2019-02-19T08:53:26.858Z,99.90
2019-02-19T08:55:57.605Z,99.90
2019-02-19T08:58:28.357Z,99.90
2019-02-19T09:00:59.109Z,99.90
2019-02-19T09:03:29.843Z,99.90
2019-02-19T09:06:00.589Z,99.90
2019-02-19T09:08:31.336Z,99.90
2019-02-19T09:11:02.042Z,99.90
2019-02-19T09:13:32.824Z,99.90
2019-02-19T09:16:03.535Z,99.90
2019-02-19T09:18:34.281Z,99.90
2019-02-19T09:21:05.029Z,99.90
2019-02-19T09:23:36.139Z,99.90
2019-02-19T09:26:07.050Z,99.90
2019-02-19T09:28:37.776Z,99.90
2019-02-19T09:31:08.541Z,99.90
2019-02-19T09:33:39.279Z,99.90
2019-02-19T09:36:10.040Z,99.90
2019-02-19T09:38:40.795Z,99.90
2019-02-19T09:41:11.547Z,99.90
2019-02-19T09:43:42.313Z,99.90
2019-02-19T09:46:13.122Z,99.90
2019-02-19T09:48:43.846Z,99.20
2019-02-19T09:51:14.635Z,99.40
2019-02-19T09:53:45.348Z,99.00
2019-02-19T09:56:16.075Z,97.70
2019-02-19T09:58:46.811Z,96.80
2019-02-19T10:02:45.940Z,96.30
2019-02-19T10:05:16.795Z,98.60
2019-02-19T10:07:47.524Z,99.90
2019-02-19T10:10:18.497Z,99.90
2019-02-19T10:12:49.234Z,99.90
2019-02-19T10:15:19.960Z,99.90
2019-02-19T10:17:50.876Z,99.90
2019-02-19T10:20:21.860Z,99.90
2019-02-19T10:22:52.699Z,99.90
2019-02-19T10:25:23.556Z,99.90
2019-02-19T10:27:54.451Z,99.90
2019-02-19T10:30:25.453Z,99.90
2019-02-19T10:32:56.354Z,99.90
2019-02-19T10:35:27.260Z,99.90
2019-02-19T10:37:58.117Z,99.90
2019-02-19T10:40:29.194Z,99.90
2019-02-19T10:43:48.920Z,99.90
2019-02-19T10:46:20.543Z,99.90
2019-02-19T10:48:52.023Z,99.90
2019-02-19T10:51:23.531Z,99.90
2019-02-19T10:53:54.997Z,98.80
2019-02-19T10:56:26.554Z,98.90
2019-02-19T10:58:58.040Z,98.90
2019-02-19T11:01:29.539Z,97.20
2019-02-19T11:04:01.033Z,98.80
2019-02-19T11:06:32.579Z,97.60
2019-02-19T11:09:04.655Z,95.00
2019-02-19T11:11:36.213Z,94.30
2019-02-19T11:14:07.709Z,94.20
2019-02-19T11:16:39.255Z,94.50
2019-02-19T11:19:10.743Z,93.00
2019-02-19T11:21:42.258Z,93.40
2019-02-19T11:24:13.745Z,93.40
2019-02-19T11:26:45.161Z,90.50
2019-02-19T11:29:16.668Z,91.20
2019-02-19T11:32:14.103Z,91.10
2019-02-19T11:34:45.115Z,90.10
2019-02-19T11:37:16.032Z,87.50
2019-02-19T11:39:46.918Z,87.70
2019-02-19T11:42:17.825Z,89.00
2019-02-19T11:44:48.712Z,88.60
2019-02-19T11:47:26.433Z,85.20
2019-02-19T11:51:09.457Z,86.30
2019-02-19T11:53:41.022Z,81.40
2019-02-19T11:56:29.691Z,82.30
2019-02-19T11:59:01.197Z,77.80
2019-02-19T12:01:32.623Z,79.80
2019-02-19T12:04:04.119Z,83.10
2019-02-19T12:06:35.626Z,73.50
2019-02-19T12:09:07.426Z,68.80
2019-02-19T12:11:38.900Z,68.00
2019-02-19T12:14:10.466Z,67.60
2019-02-19T12:16:41.943Z,68.40
2019-02-19T12:19:13.478Z,71.50
2019-02-19T12:21:44.946Z,69.10
2019-02-19T12:24:16.492Z,67.10
2019-02-19T12:26:47.968Z,64.80
2019-02-19T12:29:19.485Z,65.20
2019-02-19T12:31:50.991Z,62.70
2019-02-19T12:34:22.514Z,61.60
2019-02-19T12:36:54.035Z,62.70
2019-02-19T12:39:25.491Z,62.10
2019-02-19T12:41:56.998Z,61.60
2019-02-19T12:44:28.524Z,61.00
2019-02-19T12:47:00.071Z,62.80
2019-02-19T12:49:31.597Z,63.20
2019-02-19T12:52:03.111Z,62.90
2019-02-19T12:54:34.600Z,59.80
2019-02-19T12:57:06.156Z,57.50
2019-02-19T12:59:56.515Z,55.30
2019-02-19T13:02:44.989Z,56.70
2019-02-19T13:05:33.919Z,59.10
2019-02-19T13:08:22.319Z,57.40
2019-02-19T13:11:11.371Z,55.10
2019-02-19T13:13:59.811Z,55.80
2019-02-19T13:16:48.492Z,54.80
2019-02-19T13:19:37.642Z,51.00
2019-02-19T13:22:27.005Z,45.20
2019-02-19T13:25:16.338Z,43.50
2019-02-19T13:28:05.775Z,47.90
2019-02-19T13:30:54.379Z,46.70
2019-02-19T13:33:43.548Z,46.90
2019-02-19T13:36:32.607Z,49.60
2019-02-19T13:39:21.660Z,46.40
2019-02-19T13:42:10.840Z,41.20
2019-02-19T13:44:59.903Z,41.90
2019-02-19T13:47:49.300Z,42.40
2019-02-19T13:50:38.221Z,44.70
2019-02-19T13:53:37.058Z,44.80
2019-02-19T13:56:27.657Z,44.70
2019-02-19T13:59:16.392Z,46.10
2019-02-19T14:02:05.657Z,46.90
2019-02-19T14:04:54.498Z,48.30
2019-02-19T14:07:43.839Z,51.00
2019-02-19T14:10:32.493Z,55.00
2019-02-19T14:13:21.740Z,58.90
2019-02-19T14:16:32.986Z,60.80
2019-02-19T14:19:39.061Z,62.10
2019-02-19T14:22:46.030Z,62.30
2019-02-19T14:25:51.310Z,62.50
2019-02-19T14:29:00.107Z,63.80
2019-02-19T14:31:47.917Z,63.20
2019-02-19T14:34:37.651Z,63.50
2019-02-19T14:37:18.797Z,64.80
2019-02-19T14:40:45.880Z,65.00
2019-02-19T14:44:11.879Z,65.70
2019-02-19T14:47:14.410Z,64.10
2019-02-19T14:50:13.693Z,64.60
2019-02-19T14:53:30.794Z,63.50
2019-02-19T14:56:37.328Z,65.70
2019-02-19T14:59:45.206Z,65.00
2019-02-19T15:02:51.496Z,64.30
2019-02-19T15:05:58.651Z,65.50
2019-02-19T15:09:09.781Z,65.70
2019-02-19T15:12:08.032Z,66.80
2019-02-19T15:14:50.913Z,66.20
2019-02-19T15:17:35.980Z,66.00
2019-02-19T15:20:28.141Z,65.70
2019-02-19T15:23:15.056Z,66.20
2019-02-19T15:26:02.602Z,65.70
2019-02-19T15:28:51.382Z,66.70
2019-02-19T15:31:46.380Z,67.30
2019-02-19T15:34:31.055Z,67.10
2019-02-19T15:37:35.340Z,67.50
2019-02-19T15:40:23.053Z,68.00
2019-02-19T15:43:24.393Z,68.40
2019-02-19T15:46:12.130Z,68.10
2019-02-19T15:49:00.004Z,68.60
2019-02-19T15:51:47.565Z,68.60
2019-02-19T15:54:42.279Z,68.50
2019-02-19T15:57:35.968Z,69.30
2019-02-19T16:00:34.722Z,68.70
2019-02-19T16:03:31.056Z,68.50
2019-02-19T16:06:22.739Z,69.70
2019-02-19T16:09:06.695Z,69.50
2019-02-19T16:11:45.886Z,70.80
2019-02-19T16:14:53.212Z,70.50
2019-02-19T16:17:54.043Z,70.60
2019-02-19T16:20:32.832Z,71.60
2019-02-19T16:23:28.056Z,71.60
2019-02-19T16:26:28.616Z,72.20
2019-02-19T16:29:09.556Z,73.30
2019-02-19T16:31:53.796Z,73.40
2019-02-19T16:34:48.758Z,74.00
2019-02-19T16:37:25.678Z,74.40
2019-02-19T16:40:06.985Z,75.40
2019-02-19T16:42:52.780Z,77.00
2019-02-19T16:45:41.745Z,78.40
2019-02-19T16:48:24.545Z,79.60
2019-02-19T16:51:19.517Z,80.30
2019-02-19T16:54:07.263Z,81.30
2019-02-19T16:57:02.393Z,83.30
2019-02-19T17:00:48.194Z,83.20
2019-02-19T17:03:34.473Z,84.90
2019-02-19T17:06:24.382Z,85.60
2019-02-19T17:09:00.491Z,86.30
2019-02-19T17:11:41.907Z,88.10
2019-02-19T17:14:46.970Z,88.50
2019-02-19T17:18:57.996Z,89.20
2019-02-19T17:21:51.102Z,90.90
2019-02-19T17:24:44.728Z,91.20
2019-02-19T17:27:37.511Z,92.60
2019-02-19T17:30:27.844Z,92.30
2019-02-19T17:33:30.002Z,92.80
2019-02-19T17:36:19.846Z,93.60
2019-02-19T17:39:00.224Z,93.30
2019-02-19T17:41:44.906Z,94.00
2019-02-19T17:44:40.569Z,93.80
2019-02-19T17:51:05.212Z,93.70
2019-02-19T17:53:55.173Z,94.50
2019-02-19T17:56:48.488Z,94.60
2019-02-19T18:00:47.281Z,95.00
2019-02-19T18:03:36.815Z,95.20
2019-02-19T18:06:24.974Z,96.10
2019-02-19T18:10:08.578Z,96.80
2019-02-19T18:13:00.043Z,97.10
2019-02-19T18:15:43.561Z,97.80
2019-02-19T18:20:15.403Z,97.30
2019-02-19T18:22:47.969Z,96.90
2019-02-19T18:26:50.153Z,97.30
2019-02-19T18:29:21.134Z,98.20
2019-02-19T18:31:52.050Z,98.80
2019-02-19T18:34:22.956Z,99.60
2019-02-19T18:38:22.794Z,99.90
2019-02-19T18:41:11.979Z,99.90
2019-02-19T18:43:42.932Z,99.90
2019-02-19T18:46:13.827Z,99.90
2019-02-19T18:50:27.416Z,99.90
2019-02-19T18:52:57.530Z,99.90
2019-02-19T18:55:27.541Z,99.90
2019-02-19T18:57:57.578Z,99.90
2019-02-19T19:00:27.634Z,99.90
2019-02-19T19:02:57.672Z,99.90
2019-02-19T19:05:27.730Z,99.90
2019-02-19T19:07:58.224Z,99.90
2019-02-19T19:10:28.273Z,99.90
2019-02-19T19:12:58.257Z,99.90
2019-02-19T19:15:28.240Z,99.90
2019-02-19T19:17:58.276Z,99.90
2019-02-19T19:20:28.314Z,99.90
2019-02-19T19:22:58.295Z,99.90
2019-02-19T19:25:28.355Z,99.90
2019-02-19T19:27:58.351Z,99.90
2019-02-19T19:30:28.447Z,99.90
2019-02-19T19:32:58.442Z,99.90
2019-02-19T19:35:28.411Z,99.90
2019-02-19T19:37:58.424Z,99.90
2019-02-19T19:40:28.380Z,99.90
2019-02-19T19:42:58.377Z,99.90
2019-02-19T19:45:28.393Z,99.90
2019-02-19T19:47:58.423Z,99.90
2019-02-19T19:50:28.454Z,99.90
2019-02-19T19:52:58.442Z,99.90
2019-02-19T19:55:28.427Z,99.90
2019-02-19T19:57:58.478Z,99.90
2019-02-19T20:00:28.429Z,99.90
2019-02-19T20:02:58.237Z,99.90
2019-02-19T20:06:22.324Z,99.90
2019-02-19T20:08:53.315Z,99.90
2019-02-19T20:11:24.247Z,99.90
2019-02-19T20:13:55.214Z,99.90
2019-02-19T20:16:26.090Z,99.90
2019-02-19T20:18:57.979Z,99.90
2019-02-19T20:23:31.917Z,99.90
2019-02-19T20:26:02.883Z,99.90
2019-02-19T20:28:32.954Z,99.90
2019-02-19T20:31:03.641Z,99.90
2019-02-19T20:33:34.360Z,99.90
2019-02-19T20:36:05.083Z,99.90
2019-02-19T20:38:35.859Z,99.90
2019-02-19T20:41:06.607Z,99.90
2019-02-19T20:43:37.383Z,99.90
2019-02-19T20:46:08.119Z,99.90
2019-02-19T20:48:38.917Z,99.90
2019-02-19T20:51:09.624Z,99.90
2019-02-19T20:53:40.357Z,99.90
2019-02-19T20:56:11.123Z,99.90
2019-02-19T20:58:41.929Z,99.90
2019-02-19T21:01:12.655Z,99.90
2019-02-19T21:03:44.175Z,99.90
2019-02-19T21:06:15.010Z,99.90
2019-02-19T21:08:45.684Z,99.90
2019-02-19T21:11:16.442Z,99.90
2019-02-19T21:13:47.197Z,99.90
2019-02-19T21:16:17.973Z,99.90
2019-02-19T21:18:48.699Z,99.90
2019-02-19T21:21:19.414Z,99.90
2019-02-19T21:23:50.126Z,99.90
2019-02-19T21:26:20.831Z,99.90
2019-02-19T21:28:51.504Z,99.90
2019-02-19T21:31:22.137Z,99.90
2019-02-19T21:33:52.859Z,99.90
2019-02-19T21:36:23.513Z,99.90
2019-02-19T21:38:54.133Z,99.90
2019-02-19T21:41:24.835Z,99.90
2019-02-19T21:43:55.513Z,99.90
2019-02-19T21:46:26.173Z,99.90
2019-02-19T21:48:56.926Z,99.90
2019-02-19T21:51:27.662Z,99.90
2019-02-19T21:53:58.487Z,99.90
2019-02-19T21:56:47.599Z,99.90
2019-02-19T21:59:36.029Z,99.90
2019-02-19T22:02:25.278Z,99.90
2019-02-19T22:05:14.469Z,99.90
2019-02-19T22:08:03.651Z,99.90
2019-02-19T22:10:53.899Z,99.90
2019-02-19T22:13:24.818Z,99.90
2019-02-19T22:15:55.604Z,99.90
2019-02-19T22:18:27.351Z,99.90
2019-02-19T22:21:09.690Z,99.90
2019-02-19T22:23:40.506Z,99.90
2019-02-19T22:26:11.213Z,99.90
2019-02-19T22:28:43.920Z,99.90
2019-02-19T22:31:16.890Z,99.90
2019-02-19T22:34:01.287Z,99.90
2019-02-19T22:36:34.055Z,99.90
2019-02-19T22:39:07.880Z,99.90
2019-02-19T22:41:51.103Z,99.90
2019-02-19T22:44:23.825Z,99.90
2019-02-19T22:46:56.434Z,99.90
2019-02-19T22:49:39.492Z,99.90
2019-02-19T22:52:12.777Z,99.90
2019-02-19T22:55:15.803Z,99.90
2019-02-19T22:57:45.759Z,99.90
2019-02-19T23:00:34.900Z,99.90
2019-02-19T23:03:26.313Z,99.90
2019-02-19T23:05:58.918Z,99.90
2019-02-19T23:08:41.616Z,99.90
2019-02-19T23:11:20.810Z,99.90
2019-02-19T23:13:53.672Z,99.90
2019-02-19T23:16:38.912Z,99.90
2019-02-19T23:19:11.710Z,99.90
2019-02-19T23:21:44.412Z,99.90
2019-02-19T23:24:27.312Z,99.90
2019-02-19T23:27:00.178Z,99.90
2019-02-19T23:29:32.919Z,99.90
2019-02-19T23:32:05.616Z,99.90
2019-02-19T23:34:38.278Z,99.90
2019-02-19T23:37:27.584Z,99.90
2019-02-19T23:40:10.832Z,99.90
2019-02-19T23:42:43.529Z,99.90
2019-02-19T23:45:16.206Z,99.90
2019-02-19T23:47:58.625Z,99.90
2019-02-19T23:50:43.957Z,99.90
2019-02-19T23:53:16.741Z,99.90
2019-02-19T23:55:49.499Z,99.90
2019-02-19T23:58:22.346Z,99.90
